createdAt,value
2017-07-24T00:00:11.558Z,15.76
2017-07-24T00:01:12.800Z,15.72
2017-07-24T00:02:14.036Z,15.78
2017-07-24T00:03:15.293Z,15.85
2017-07-24T00:04:16.557Z,15.81
2017-07-24T00:05:17.823Z,15.72
2017-07-24T00:06:19.044Z,15.79
2017-07-24T00:07:20.281Z,15.75
2017-07-24T00:08:21.574Z,15.72
2017-07-24T00:09:22.859Z,15.81
2017-07-24T00:10:24.159Z,15.84
2017-07-24T00:11:25.402Z,15.84
2017-07-24T00:12:26.638Z,15.82
2017-07-24T00:13:27.893Z,15.86
2017-07-24T00:14:29.204Z,15.84
2017-07-24T00:15:30.460Z,15.74
2017-07-24T00:16:31.685Z,15.88
2017-07-24T00:17:32.931Z,15.81
2017-07-24T00:18:34.170Z,15.88
2017-07-24T00:19:35.408Z,15.78
2017-07-24T00:20:36.731Z,15.81
2017-07-24T00:21:37.966Z,15.79
2017-07-24T00:22:39.209Z,15.79
2017-07-24T00:23:40.447Z,15.89
2017-07-24T00:24:41.687Z,15.85
2017-07-24T00:25:43.007Z,15.84
2017-07-24T00:26:44.233Z,15.93
2017-07-24T00:27:45.550Z,15.86
2017-07-24T00:28:46.898Z,15.86
2017-07-24T00:29:48.232Z,15.82
2017-07-24T00:30:49.471Z,15.86
2017-07-24T00:31:50.760Z,15.82
2017-07-24T00:32:51.997Z,15.79
2017-07-24T00:33:53.238Z,15.92
2017-07-24T00:34:54.577Z,15.82
2017-07-24T00:35:55.841Z,15.81
2017-07-24T00:36:57.063Z,15.85
2017-07-24T00:37:58.305Z,15.88
2017-07-24T00:38:59.571Z,15.79
2017-07-24T00:40:00.869Z,15.82
2017-07-24T00:41:02.107Z,15.85
2017-07-24T00:42:03.407Z,15.81
2017-07-24T00:43:04.618Z,15.79
2017-07-24T00:44:05.873Z,15.85
2017-07-24T00:45:07.186Z,15.78
2017-07-24T00:46:08.531Z,15.88
2017-07-24T00:47:09.795Z,15.82
2017-07-24T00:48:11.049Z,15.78
2017-07-24T00:49:12.276Z,15.78
2017-07-24T00:50:13.511Z,15.82
2017-07-24T00:51:14.764Z,15.84
2017-07-24T00:52:16.001Z,15.82
2017-07-24T00:53:17.257Z,15.85
2017-07-24T00:54:18.491Z,15.85
2017-07-24T00:55:19.754Z,15.81
2017-07-24T00:56:20.979Z,15.84
2017-07-24T00:57:22.218Z,15.84
2017-07-24T00:58:23.490Z,15.88
2017-07-24T00:59:24.884Z,15.84
2017-07-24T01:00:26.123Z,15.79
2017-07-24T01:01:27.542Z,15.85
2017-07-24T01:02:28.783Z,15.82
2017-07-24T01:03:30.020Z,15.78
2017-07-24T01:04:31.269Z,15.85
2017-07-24T01:05:32.622Z,15.82
2017-07-24T01:06:33.849Z,15.84
2017-07-24T01:07:35.102Z,15.85
2017-07-24T01:08:36.337Z,15.82
2017-07-24T01:09:37.574Z,15.79
2017-07-24T01:10:38.844Z,15.75
2017-07-24T01:11:40.092Z,15.74
2017-07-24T01:12:41.334Z,15.74
2017-07-24T01:13:42.569Z,15.81
2017-07-24T01:14:43.811Z,15.67
2017-07-24T01:15:45.060Z,15.7
2017-07-24T01:16:46.300Z,15.81
2017-07-24T01:17:47.549Z,15.81
2017-07-24T01:18:48.845Z,15.75
2017-07-24T01:19:50.250Z,15.82
2017-07-24T01:20:51.374Z,15.84
2017-07-24T01:21:52.612Z,15.84
2017-07-24T01:22:53.855Z,15.74
2017-07-24T01:23:55.102Z,15.81
2017-07-24T01:24:56.344Z,15.84
2017-07-24T01:25:57.592Z,15.86
2017-07-24T01:26:58.848Z,15.82
2017-07-24T01:28:00.104Z,15.82
2017-07-24T01:29:01.333Z,15.82
2017-07-24T01:30:02.586Z,15.79
2017-07-24T01:31:03.826Z,15.88
2017-07-24T01:32:05.165Z,15.84
2017-07-24T01:33:06.402Z,15.81
2017-07-24T01:34:07.652Z,15.84
2017-07-24T01:35:08.884Z,15.79
2017-07-24T01:36:10.133Z,15.79
2017-07-24T01:37:11.374Z,15.76
2017-07-24T01:38:12.723Z,15.86
2017-07-24T01:39:13.954Z,15.88
2017-07-24T01:40:15.221Z,15.86
2017-07-24T01:41:16.447Z,15.82
2017-07-24T01:42:17.687Z,15.85
2017-07-24T01:43:18.919Z,15.82
2017-07-24T01:44:20.166Z,15.85
2017-07-24T01:45:21.420Z,15.82
2017-07-24T01:46:22.756Z,15.86
2017-07-24T01:47:23.984Z,15.86
2017-07-24T01:48:25.218Z,15.85
2017-07-24T01:49:26.471Z,15.84
2017-07-24T01:50:27.817Z,15.84
2017-07-24T01:51:29.105Z,15.84
2017-07-24T01:52:30.340Z,15.86
2017-07-24T01:53:31.595Z,15.89
2017-07-24T01:54:32.810Z,15.88
2017-07-24T01:55:34.041Z,15.85
2017-07-24T01:56:35.283Z,15.89
2017-07-24T01:57:36.627Z,15.82
2017-07-24T01:58:37.769Z,15.85
2017-07-24T01:59:39.117Z,15.84
2017-07-24T02:00:40.365Z,15.85
2017-07-24T02:01:41.587Z,15.92
2017-07-24T02:02:42.827Z,15.89
2017-07-24T02:03:44.063Z,15.86
2017-07-24T02:04:45.302Z,15.92
2017-07-24T02:05:46.547Z,15.86
2017-07-24T02:06:47.786Z,15.97
2017-07-24T02:07:49.135Z,15.85
2017-07-24T02:08:50.405Z,15.92
2017-07-24T02:09:51.708Z,15.86
2017-07-24T02:10:53.050Z,15.86
2017-07-24T02:11:54.278Z,15.85
2017-07-24T02:12:55.516Z,15.82
2017-07-24T02:13:56.759Z,15.82
2017-07-24T02:14:57.998Z,15.86
2017-07-24T02:15:59.324Z,15.85
2017-07-24T02:17:00.621Z,15.86
2017-07-24T02:18:01.863Z,15.84
2017-07-24T02:19:03.094Z,15.88
2017-07-24T02:20:04.325Z,15.86
2017-07-24T02:21:05.568Z,15.82
2017-07-24T02:22:06.916Z,15.92
2017-07-24T02:23:08.135Z,15.89
2017-07-24T02:24:09.376Z,15.94
2017-07-24T02:25:10.613Z,15.88
2017-07-24T02:26:11.845Z,15.97
2017-07-24T02:27:13.086Z,15.96
2017-07-24T02:28:14.378Z,15.96
2017-07-24T02:29:15.721Z,15.89
2017-07-24T02:30:17.000Z,15.89
2017-07-24T02:31:18.231Z,15.96
2017-07-24T02:32:19.463Z,15.94
2017-07-24T02:33:20.741Z,15.97
2017-07-24T02:34:21.996Z,16
2017-07-24T02:35:23.225Z,15.99
2017-07-24T02:36:24.465Z,15.96
2017-07-24T02:37:25.696Z,15.96
2017-07-24T02:38:26.934Z,15.97
2017-07-24T02:39:28.172Z,15.97
2017-07-24T02:40:29.416Z,15.97
2017-07-24T02:41:30.744Z,15.97
2017-07-24T02:42:31.924Z,16
2017-07-24T02:43:33.228Z,16.01
2017-07-24T02:44:34.456Z,15.89
2017-07-24T02:45:35.687Z,15.86
2017-07-24T02:46:36.920Z,15.93
2017-07-24T02:47:38.153Z,15.88
2017-07-24T02:48:39.392Z,15.86
2017-07-24T02:49:40.631Z,15.85
2017-07-24T02:50:41.868Z,15.85
2017-07-24T02:51:43.127Z,15.86
2017-07-24T02:52:44.391Z,15.86
2017-07-24T02:53:45.683Z,15.85
2017-07-24T02:54:47.020Z,15.81
2017-07-24T02:55:48.264Z,15.82
2017-07-24T02:56:49.551Z,15.86
2017-07-24T02:57:50.781Z,15.88
2017-07-24T02:58:52.018Z,15.86
2017-07-24T02:59:53.375Z,15.84
2017-07-24T03:00:54.776Z,15.88
2017-07-24T03:01:56.012Z,15.93
2017-07-24T03:02:57.238Z,15.82
2017-07-24T03:03:58.478Z,15.86
2017-07-24T03:04:59.737Z,15.89
2017-07-24T03:06:00.967Z,15.86
2017-07-24T03:07:02.281Z,15.89
2017-07-24T03:08:03.562Z,15.85
2017-07-24T03:09:04.799Z,15.86
2017-07-24T03:10:06.035Z,15.84
2017-07-24T03:11:07.295Z,15.86
2017-07-24T03:12:08.553Z,15.85
2017-07-24T03:13:09.796Z,15.88
2017-07-24T03:14:11.134Z,15.94
2017-07-24T03:15:12.371Z,15.88
2017-07-24T03:16:13.618Z,15.86
2017-07-24T03:17:14.854Z,15.85
2017-07-24T03:18:16.086Z,15.88
2017-07-24T03:19:17.327Z,15.89
2017-07-24T03:20:18.682Z,15.93
2017-07-24T03:21:19.915Z,15.88
2017-07-24T03:22:21.152Z,15.85
2017-07-24T03:23:22.383Z,15.89
2017-07-24T03:24:23.618Z,15.89
2017-07-24T03:25:24.855Z,15.97
2017-07-24T03:26:26.090Z,15.97
2017-07-24T03:27:27.327Z,15.89
2017-07-24T03:28:28.574Z,15.88
2017-07-24T03:29:29.807Z,15.86
2017-07-24T03:30:31.097Z,15.85
2017-07-24T03:31:32.395Z,15.85
2017-07-24T03:32:33.686Z,15.85
2017-07-24T03:33:35.052Z,15.85
2017-07-24T03:34:36.287Z,15.84
2017-07-24T03:35:37.533Z,15.81
2017-07-24T03:36:38.836Z,15.68
2017-07-24T03:37:40.083Z,15.81
2017-07-24T03:38:41.398Z,15.75
2017-07-24T03:39:42.711Z,15.75
2017-07-24T03:40:43.966Z,15.72
2017-07-24T03:41:45.188Z,15.76
2017-07-24T03:42:46.421Z,15.68
2017-07-24T03:43:47.656Z,15.78
2017-07-24T03:44:48.975Z,15.74
2017-07-24T03:45:50.214Z,15.7
2017-07-24T03:46:51.452Z,15.72
2017-07-24T03:47:52.689Z,15.67
2017-07-24T03:48:53.919Z,15.72
2017-07-24T03:49:55.290Z,15.74
2017-07-24T03:50:56.559Z,15.61
2017-07-24T03:51:57.797Z,15.67
2017-07-24T03:52:59.036Z,15.66
2017-07-24T03:54:00.268Z,15.63
2017-07-24T03:55:01.517Z,15.64
2017-07-24T03:56:02.986Z,15.66
2017-07-24T03:57:04.253Z,15.66
2017-07-24T03:58:05.503Z,15.6
2017-07-24T03:59:06.740Z,15.67
2017-07-24T04:00:07.997Z,15.61
2017-07-24T04:01:09.221Z,15.6
2017-07-24T04:02:10.545Z,15.54
2017-07-24T04:03:11.769Z,15.52
2017-07-24T04:04:13.105Z,15.49
2017-07-24T04:05:14.427Z,15.52
2017-07-24T04:06:15.672Z,15.49
2017-07-24T04:07:16.936Z,15.54
2017-07-24T04:08:18.170Z,15.52
2017-07-24T04:09:19.495Z,15.56
2017-07-24T04:10:20.733Z,15.54
2017-07-24T04:11:21.969Z,15.48
2017-07-24T04:12:23.212Z,15.48
2017-07-24T04:13:24.448Z,15.51
2017-07-24T04:14:25.678Z,15.52
2017-07-24T04:15:26.979Z,15.52
2017-07-24T04:16:28.227Z,15.61
2017-07-24T04:17:29.453Z,15.66
2017-07-24T04:18:30.697Z,15.63
2017-07-24T04:19:31.942Z,15.66
2017-07-24T04:20:33.179Z,15.68
2017-07-24T04:21:34.683Z,15.67
2017-07-24T04:22:35.920Z,15.6
2017-07-24T04:23:37.220Z,15.66
2017-07-24T04:24:38.455Z,15.61
2017-07-24T04:25:39.694Z,15.57
2017-07-24T04:26:40.931Z,15.57
2017-07-24T04:27:42.218Z,15.6
2017-07-24T04:28:43.529Z,15.66
2017-07-24T04:29:44.870Z,15.59
2017-07-24T04:30:46.102Z,15.64
2017-07-24T04:31:47.339Z,15.61
2017-07-24T04:32:48.590Z,15.66
2017-07-24T04:33:49.870Z,15.63
2017-07-24T04:34:51.191Z,15.67
2017-07-24T04:35:52.478Z,15.68
2017-07-24T04:36:53.709Z,15.74
2017-07-24T04:37:54.946Z,15.64
2017-07-24T04:38:56.187Z,15.74
2017-07-24T04:39:57.434Z,15.74
2017-07-24T04:40:58.773Z,15.74
2017-07-24T04:42:00.031Z,15.75
2017-07-24T04:43:01.280Z,15.72
2017-07-24T04:44:02.498Z,15.74
2017-07-24T04:45:03.738Z,15.76
2017-07-24T04:46:04.989Z,15.75
2017-07-24T04:47:06.211Z,15.66
2017-07-24T04:48:07.559Z,15.79
2017-07-24T04:49:08.797Z,15.85
2017-07-24T04:50:10.036Z,15.84
2017-07-24T04:51:11.287Z,15.85
2017-07-24T04:52:12.607Z,15.81
2017-07-24T04:53:13.845Z,15.89
2017-07-24T04:54:15.141Z,15.85
2017-07-24T04:55:16.379Z,15.84
2017-07-24T04:56:17.619Z,15.86
2017-07-24T04:57:18.930Z,15.89
2017-07-24T04:58:20.167Z,15.82
2017-07-24T04:59:21.496Z,15.74
2017-07-24T05:00:22.744Z,15.88
2017-07-24T05:01:24.143Z,15.85
2017-07-24T05:02:25.263Z,15.74
2017-07-24T05:03:26.496Z,15.78
2017-07-24T05:04:27.754Z,15.85
2017-07-24T05:05:29.080Z,15.84
2017-07-24T05:06:30.305Z,15.84
2017-07-24T05:07:31.520Z,15.85
2017-07-24T05:08:32.803Z,15.94
2017-07-24T05:09:34.050Z,15.88
2017-07-24T05:10:35.407Z,15.85
2017-07-24T05:11:36.646Z,15.84
2017-07-24T05:12:37.885Z,15.89
2017-07-24T05:13:39.126Z,15.93
2017-07-24T05:14:40.357Z,15.85
2017-07-24T05:15:41.596Z,15.88
2017-07-24T05:16:42.847Z,15.94
2017-07-24T05:17:44.080Z,15.89
2017-07-24T05:18:45.327Z,15.89
2017-07-24T05:19:46.668Z,15.86
2017-07-24T05:20:47.932Z,15.85
2017-07-24T05:21:49.163Z,15.85
2017-07-24T05:22:50.398Z,15.92
2017-07-24T05:23:51.634Z,15.88
2017-07-24T05:24:53.026Z,15.92
2017-07-24T05:25:54.151Z,15.85
2017-07-24T05:26:55.443Z,15.86
2017-07-24T05:27:56.680Z,15.85
2017-07-24T05:28:57.924Z,15.89
2017-07-24T05:29:59.170Z,15.89
2017-07-24T05:31:00.658Z,15.84
2017-07-24T05:32:02.008Z,15.89
2017-07-24T05:33:03.305Z,15.85
2017-07-24T05:34:04.547Z,15.86
2017-07-24T05:35:05.785Z,15.86
2017-07-24T05:36:07.033Z,15.88
2017-07-24T05:37:08.341Z,15.86
2017-07-24T05:38:09.601Z,15.84
2017-07-24T05:39:10.840Z,15.88
2017-07-24T05:40:12.097Z,15.84
2017-07-24T05:41:13.319Z,15.88
2017-07-24T05:42:14.555Z,15.79
2017-07-24T05:43:15.896Z,15.85
2017-07-24T05:44:17.146Z,15.85
2017-07-24T05:45:18.403Z,15.81
2017-07-24T05:46:19.623Z,15.88
2017-07-24T05:47:20.862Z,15.84
2017-07-24T05:48:22.090Z,15.92
2017-07-24T05:49:23.315Z,15.94
2017-07-24T05:50:24.557Z,16
2017-07-24T05:51:25.803Z,15.96
2017-07-24T05:52:27.034Z,15.96
2017-07-24T05:53:28.269Z,15.94
2017-07-24T05:54:29.508Z,15.97
2017-07-24T05:55:30.755Z,15.92
2017-07-24T05:56:31.999Z,15.93
2017-07-24T05:57:33.334Z,15.96
2017-07-24T05:58:34.579Z,15.96
2017-07-24T05:59:35.818Z,15.99
2017-07-24T06:00:37.143Z,16
2017-07-24T06:01:38.390Z,15.99
2017-07-24T06:02:39.658Z,16.01
2017-07-24T06:03:40.900Z,15.97
2017-07-24T06:04:42.136Z,16.01
2017-07-24T06:05:43.369Z,16.11
2017-07-24T06:06:44.614Z,15.97
2017-07-24T06:07:45.835Z,16.09
2017-07-24T06:08:47.094Z,16.11
2017-07-24T06:09:48.333Z,16.03
2017-07-24T06:10:49.588Z,16
2017-07-24T06:11:50.815Z,16.06
2017-07-24T06:12:52.060Z,16.04
2017-07-24T06:13:53.308Z,16.09
2017-07-24T06:14:54.555Z,16.14
2017-07-24T06:15:55.797Z,16.12
2017-07-24T06:16:57.050Z,16.12
2017-07-24T06:17:58.405Z,16.11
2017-07-24T06:18:59.597Z,16.12
2017-07-24T06:20:00.843Z,16.14
2017-07-24T06:21:02.085Z,16.15
2017-07-24T06:22:03.384Z,16.18
2017-07-24T06:23:04.664Z,16.23
2017-07-24T06:24:05.884Z,16.16
2017-07-24T06:25:07.118Z,16.2
2017-07-24T06:26:08.373Z,16.27
2017-07-24T06:27:09.590Z,16.26
2017-07-24T06:28:10.840Z,16.22
2017-07-24T06:29:12.070Z,16.33
2017-07-24T06:30:13.363Z,16.35
2017-07-24T06:31:14.621Z,16.33
2017-07-24T06:32:15.860Z,16.44
2017-07-24T06:33:17.185Z,16.4
2017-07-24T06:34:18.429Z,16.4
2017-07-24T06:35:19.719Z,16.37
2017-07-24T06:36:20.920Z,16.52
2017-07-24T06:37:22.148Z,16.55
2017-07-24T06:38:23.501Z,16.58
2017-07-24T06:39:24.798Z,16.6
2017-07-24T06:40:26.067Z,16.74
2017-07-24T06:41:27.292Z,16.74
2017-07-24T06:42:28.662Z,16.73
2017-07-24T06:43:29.782Z,16.81
2017-07-24T06:44:31.022Z,16.86
2017-07-24T06:45:32.261Z,16.85
2017-07-24T06:46:33.601Z,16.8
2017-07-24T06:47:34.849Z,16.8
2017-07-24T06:48:36.119Z,16.83
2017-07-24T06:49:37.437Z,16.85
2017-07-24T06:50:38.668Z,16.86
2017-07-24T06:51:39.905Z,16.86
2017-07-24T06:52:41.164Z,16.95
2017-07-24T06:53:42.425Z,16.95
2017-07-24T06:54:43.666Z,16.95
2017-07-24T06:55:44.984Z,16.92
2017-07-24T06:56:46.226Z,16.96
2017-07-24T06:57:47.478Z,16.92
2017-07-24T06:58:48.698Z,16.92
2017-07-24T06:59:49.929Z,16.95
2017-07-24T07:00:51.168Z,16.92
2017-07-24T07:01:52.407Z,16.93
2017-07-24T07:02:53.654Z,16.98
2017-07-24T07:03:54.888Z,16.98
2017-07-24T07:04:56.123Z,17.06
2017-07-24T07:05:57.403Z,17.1
2017-07-24T07:06:58.928Z,17.13
2017-07-24T07:08:00.178Z,17.15
2017-07-24T07:09:01.398Z,17.26
2017-07-24T07:10:02.652Z,17.18
2017-07-24T07:11:03.892Z,17.3
2017-07-24T07:12:05.121Z,17.23
2017-07-24T07:13:06.361Z,17.3
2017-07-24T07:14:07.605Z,17.29
2017-07-24T07:15:08.855Z,17.4
2017-07-24T07:16:10.191Z,17.46
2017-07-24T07:17:11.427Z,17.44
2017-07-24T07:18:12.652Z,17.48
2017-07-24T07:19:13.889Z,17.5
2017-07-24T07:20:15.149Z,17.51
2017-07-24T07:21:16.377Z,17.62
2017-07-24T07:22:17.670Z,17.62
2017-07-24T07:23:18.918Z,17.64
2017-07-24T07:24:20.166Z,17.55
2017-07-24T07:25:21.413Z,17.62
2017-07-24T07:26:22.694Z,17.48
2017-07-24T07:27:23.933Z,17.48
2017-07-24T07:28:25.176Z,17.55
2017-07-24T07:29:26.411Z,17.59
2017-07-24T07:30:27.649Z,17.57
2017-07-24T07:31:29.000Z,17.55
2017-07-24T07:32:30.246Z,17.54
2017-07-24T07:33:31.647Z,17.51
2017-07-24T07:34:32.898Z,17.47
2017-07-24T07:35:34.148Z,17.59
2017-07-24T07:36:35.386Z,17.51
2017-07-24T07:37:36.637Z,17.5
2017-07-24T07:38:37.906Z,17.5
2017-07-24T07:39:39.156Z,17.47
2017-07-24T07:40:40.403Z,17.44
2017-07-24T07:41:41.633Z,17.46
2017-07-24T07:42:42.868Z,17.43
2017-07-24T07:43:44.114Z,17.41
2017-07-24T07:44:45.378Z,17.41
2017-07-24T07:45:46.605Z,17.4
2017-07-24T07:46:47.876Z,17.4
2017-07-24T07:47:49.216Z,17.41
2017-07-24T07:48:50.456Z,17.41
2017-07-24T07:49:51.692Z,17.43
2017-07-24T07:50:52.934Z,17.41
2017-07-24T07:51:54.172Z,17.44
2017-07-24T07:52:55.419Z,17.51
2017-07-24T07:53:56.664Z,17.53
2017-07-24T07:54:57.901Z,17.57
2017-07-24T07:55:59.151Z,17.62
2017-07-24T07:57:00.385Z,17.62
2017-07-24T07:58:01.675Z,17.63
2017-07-24T07:59:02.969Z,17.67
2017-07-24T08:00:04.218Z,17.66
2017-07-24T08:01:05.473Z,17.64
2017-07-24T08:02:06.705Z,17.64
2017-07-24T08:03:07.944Z,17.73
2017-07-24T08:04:09.185Z,17.66
2017-07-24T08:05:10.485Z,17.7
2017-07-24T08:06:11.932Z,17.78
2017-07-24T08:07:13.257Z,17.67
2017-07-24T08:08:14.502Z,17.73
2017-07-24T08:09:15.741Z,17.73
2017-07-24T08:10:16.972Z,17.81
2017-07-24T08:11:18.209Z,17.88
2017-07-24T08:12:19.446Z,17.78
2017-07-24T08:13:20.683Z,17.92
2017-07-24T08:14:21.920Z,17.95
2017-07-24T08:15:23.162Z,17.97
2017-07-24T08:16:24.396Z,18
2017-07-24T08:17:25.647Z,17.94
2017-07-24T08:18:26.951Z,18.03
2017-07-24T08:19:28.185Z,17.97
2017-07-24T08:20:29.425Z,17.99
2017-07-24T08:21:30.675Z,18.09
2017-07-24T08:22:31.906Z,18.06
2017-07-24T08:23:33.205Z,18.18
2017-07-24T08:24:34.539Z,18.13
2017-07-24T08:25:35.767Z,18.07
2017-07-24T08:26:37.001Z,17.97
2017-07-24T08:27:38.229Z,17.97
2017-07-24T08:28:39.471Z,17.97
2017-07-24T08:29:40.791Z,17.92
2017-07-24T08:30:42.041Z,17.95
2017-07-24T08:31:43.295Z,17.94
2017-07-24T08:32:44.546Z,17.94
2017-07-24T08:33:45.798Z,17.95
2017-07-24T08:34:47.059Z,17.97
2017-07-24T08:35:48.290Z,17.92
2017-07-24T08:36:49.583Z,17.97
2017-07-24T08:37:50.891Z,17.95
2017-07-24T08:38:52.130Z,17.99
2017-07-24T08:39:53.400Z,18
2017-07-24T08:40:54.636Z,18.02
2017-07-24T08:41:55.879Z,17.94
2017-07-24T08:42:57.267Z,17.97
2017-07-24T08:43:58.639Z,18.09
2017-07-24T08:44:59.877Z,18.03
2017-07-24T08:46:01.117Z,18.21
2017-07-24T08:47:02.356Z,18.19
2017-07-24T08:48:03.592Z,18.25
2017-07-24T08:49:04.835Z,18.25
2017-07-24T08:50:06.068Z,18.24
2017-07-24T08:51:07.315Z,18.33
2017-07-24T08:52:08.550Z,18.31
2017-07-24T08:53:09.786Z,18.42
2017-07-24T08:54:11.113Z,18.4
2017-07-24T08:55:12.353Z,18.46
2017-07-24T08:56:13.594Z,18.54
2017-07-24T08:57:14.836Z,18.65
2017-07-24T08:58:16.063Z,18.65
2017-07-24T08:59:17.350Z,18.7
2017-07-24T09:00:18.608Z,18.64
2017-07-24T09:01:19.861Z,18.77
2017-07-24T09:02:21.179Z,18.82
2017-07-24T09:03:22.434Z,18.83
2017-07-24T09:04:23.667Z,18.87
2017-07-24T09:05:24.898Z,18.83
2017-07-24T09:06:26.153Z,18.87
2017-07-24T09:07:27.416Z,18.97
2017-07-24T09:08:28.679Z,18.95
2017-07-24T09:09:29.982Z,18.9
2017-07-24T09:10:31.223Z,18.82
2017-07-24T09:11:32.463Z,18.84
2017-07-24T09:12:33.707Z,18.79
2017-07-24T09:13:35.082Z,18.8
2017-07-24T09:14:36.321Z,19.02
2017-07-24T09:15:37.580Z,18.97
2017-07-24T09:16:38.810Z,19.06
2017-07-24T09:17:40.064Z,19.05
2017-07-24T09:18:41.389Z,19.08
2017-07-24T09:19:42.637Z,18.99
2017-07-24T09:20:43.957Z,19.02
2017-07-24T09:21:45.207Z,19.08
2017-07-24T09:22:46.471Z,19.06
2017-07-24T09:23:47.700Z,19.11
2017-07-24T09:24:48.941Z,19.15
2017-07-24T09:25:50.195Z,19.08
2017-07-24T09:26:51.427Z,19.08
2017-07-24T09:27:52.663Z,19.06
2017-07-24T09:28:53.904Z,19.1
2017-07-24T09:29:55.148Z,19.14
2017-07-24T09:30:56.393Z,19.13
2017-07-24T09:31:57.638Z,19.1
2017-07-24T09:32:58.990Z,19.13
2017-07-24T09:34:00.229Z,19.01
2017-07-24T09:35:01.495Z,18.91
2017-07-24T09:36:02.755Z,18.84
2017-07-24T09:37:03.986Z,18.77
2017-07-24T09:38:05.235Z,18.65
2017-07-24T09:39:06.480Z,18.65
2017-07-24T09:40:07.815Z,18.67
2017-07-24T09:41:09.118Z,18.76
2017-07-24T09:42:10.375Z,18.68
2017-07-24T09:43:11.621Z,18.64
2017-07-24T09:44:12.852Z,18.59
2017-07-24T09:45:14.090Z,18.67
2017-07-24T09:46:15.387Z,18.73
2017-07-24T09:47:16.629Z,18.68
2017-07-24T09:48:17.870Z,18.73
2017-07-24T09:49:19.124Z,18.73
2017-07-24T09:50:20.354Z,18.74
2017-07-24T09:51:21.683Z,18.77
2017-07-24T09:52:22.924Z,18.84
2017-07-24T09:53:24.168Z,18.72
2017-07-24T09:54:25.401Z,18.76
2017-07-24T09:55:26.662Z,18.79
2017-07-24T09:56:27.885Z,18.72
2017-07-24T09:57:29.122Z,18.72
2017-07-24T09:58:30.373Z,18.72
2017-07-24T09:59:31.698Z,18.77
2017-07-24T10:00:33.036Z,18.68
2017-07-24T10:01:34.295Z,18.74
2017-07-24T10:02:35.527Z,18.7
2017-07-24T10:03:36.763Z,18.67
2017-07-24T10:04:38.004Z,18.7
2017-07-24T10:05:39.251Z,18.64
2017-07-24T10:06:40.480Z,18.67
2017-07-24T10:07:41.794Z,18.65
2017-07-24T10:08:43.038Z,18.76
2017-07-24T10:09:44.278Z,18.7
2017-07-24T10:10:45.636Z,18.79
2017-07-24T10:11:46.925Z,18.86
2017-07-24T10:12:48.189Z,18.92
2017-07-24T10:13:49.448Z,18.98
2017-07-24T10:14:50.687Z,18.98
2017-07-24T10:15:51.934Z,19.08
2017-07-24T10:16:53.182Z,19.13
2017-07-24T10:17:54.435Z,19.13
2017-07-24T10:18:55.674Z,19.06
2017-07-24T10:19:56.923Z,19.25
2017-07-24T10:20:58.170Z,19.2
2017-07-24T10:21:59.401Z,19.14
2017-07-24T10:23:00.649Z,19.15
2017-07-24T10:24:01.905Z,19.31
2017-07-24T10:25:03.227Z,19.24
2017-07-24T10:26:04.471Z,19.32
2017-07-24T10:27:05.734Z,19.2
2017-07-24T10:28:06.965Z,19.08
2017-07-24T10:29:08.206Z,19.17
2017-07-24T10:30:09.451Z,19.13
2017-07-24T10:31:10.771Z,19.11
2017-07-24T10:32:12.033Z,19.14
2017-07-24T10:33:13.276Z,19.29
2017-07-24T10:34:14.507Z,19.24
2017-07-24T10:35:15.746Z,19.33
2017-07-24T10:36:17.083Z,19.23
2017-07-24T10:37:18.328Z,19.29
2017-07-24T10:38:19.594Z,19.28
2017-07-24T10:39:20.842Z,19.24
2017-07-24T10:40:22.081Z,19.29
2017-07-24T10:41:23.370Z,19.33
2017-07-24T10:42:24.609Z,19.43
2017-07-24T10:43:25.858Z,19.42
2017-07-24T10:44:27.183Z,19.51
2017-07-24T10:45:28.559Z,19.54
2017-07-24T10:46:29.690Z,19.61
2017-07-24T10:47:30.923Z,19.68
2017-07-24T10:48:32.156Z,19.79
2017-07-24T10:49:33.504Z,19.86
2017-07-24T10:50:34.746Z,19.95
2017-07-24T10:51:35.986Z,20.02
2017-07-24T10:52:37.260Z,20.15
2017-07-24T10:53:38.481Z,20.24
2017-07-24T10:54:39.747Z,20.43
2017-07-24T10:55:41.069Z,20.5
2017-07-24T10:56:42.302Z,20.64
2017-07-24T10:57:43.534Z,20.61
2017-07-24T10:58:44.778Z,20.5
2017-07-24T10:59:46.015Z,20.62
2017-07-24T11:00:47.288Z,20.56
2017-07-24T11:01:48.541Z,20.61
2017-07-24T11:02:49.786Z,20.64
2017-07-24T11:03:51.040Z,20.66
2017-07-24T11:04:52.298Z,20.61
2017-07-24T11:05:53.583Z,20.77
2017-07-24T11:06:54.816Z,20.77
2017-07-24T11:07:56.061Z,20.84
2017-07-24T11:08:57.408Z,20.96
2017-07-24T11:09:58.794Z,20.96
2017-07-24T11:10:59.995Z,20.98
2017-07-24T11:12:01.263Z,20.93
2017-07-24T11:13:02.492Z,20.86
2017-07-24T11:14:03.729Z,20.72
2017-07-24T11:15:04.980Z,20.69
2017-07-24T11:16:06.221Z,20.72
2017-07-24T11:17:07.527Z,20.74
2017-07-24T11:18:08.769Z,20.77
2017-07-24T11:19:10.012Z,20.86
2017-07-24T11:20:11.257Z,20.87
2017-07-24T11:21:12.493Z,20.89
2017-07-24T11:22:13.738Z,21.05
2017-07-24T11:23:15.083Z,20.98
2017-07-24T11:24:16.327Z,21.19
2017-07-24T11:25:17.584Z,21.21
2017-07-24T11:26:18.828Z,21.27
2017-07-24T11:27:20.062Z,21.32
2017-07-24T11:28:21.368Z,21.27
2017-07-24T11:29:22.606Z,21.13
2017-07-24T11:30:23.860Z,20.91
2017-07-24T11:31:25.097Z,21.02
2017-07-24T11:32:26.340Z,21.01
2017-07-24T11:33:27.575Z,20.91
2017-07-24T11:34:28.834Z,20.79
2017-07-24T11:35:30.105Z,20.72
2017-07-24T11:36:31.372Z,20.51
2017-07-24T11:37:32.643Z,20.51
2017-07-24T11:38:33.894Z,20.51
2017-07-24T11:39:35.148Z,20.65
2017-07-24T11:40:36.385Z,20.61
2017-07-24T11:41:37.647Z,20.59
2017-07-24T11:42:38.908Z,20.59
2017-07-24T11:43:40.163Z,20.72
2017-07-24T11:44:41.476Z,20.66
2017-07-24T11:45:42.711Z,20.72
2017-07-24T11:46:43.950Z,20.86
2017-07-24T11:47:45.189Z,20.84
2017-07-24T11:48:46.435Z,20.93
2017-07-24T11:49:47.732Z,21.04
2017-07-24T11:50:48.969Z,21.19
2017-07-24T11:51:50.211Z,21.16
2017-07-24T11:52:51.563Z,21.24
2017-07-24T11:53:52.897Z,21.3
2017-07-24T11:54:54.138Z,21.27
2017-07-24T11:55:55.367Z,21.19
2017-07-24T11:56:56.605Z,21.11
2017-07-24T11:57:57.840Z,21.06
2017-07-24T11:58:59.082Z,20.89
2017-07-24T12:00:00.340Z,20.76
2017-07-24T12:01:01.557Z,20.62
2017-07-24T12:02:02.824Z,20.58
2017-07-24T12:03:04.047Z,20.61
2017-07-24T12:04:05.311Z,20.59
2017-07-24T12:05:06.547Z,20.53
2017-07-24T12:06:07.813Z,20.58
2017-07-24T12:07:09.111Z,20.56
2017-07-24T12:08:10.344Z,20.59
2017-07-24T12:09:11.596Z,20.53
2017-07-24T12:10:12.831Z,20.64
2017-07-24T12:11:14.069Z,20.74
2017-07-24T12:12:15.418Z,20.81
2017-07-24T12:13:16.662Z,20.87
2017-07-24T12:14:17.906Z,20.95
2017-07-24T12:15:19.230Z,20.99
2017-07-24T12:16:20.472Z,21.09
2017-07-24T12:17:21.733Z,21.06
2017-07-24T12:18:22.970Z,21.16
2017-07-24T12:19:24.223Z,21.13
2017-07-24T12:20:25.457Z,21.19
2017-07-24T12:21:26.735Z,21.42
2017-07-24T12:22:27.972Z,21.53
2017-07-24T12:23:29.211Z,21.64
2017-07-24T12:24:30.456Z,21.69
2017-07-24T12:25:31.701Z,21.79
2017-07-24T12:26:32.937Z,21.99
2017-07-24T12:27:34.206Z,22.06
2017-07-24T12:28:35.427Z,22.25
2017-07-24T12:29:36.664Z,22.32
2017-07-24T12:30:37.907Z,22.37
2017-07-24T12:31:39.255Z,22.35
2017-07-24T12:32:40.527Z,22.49
2017-07-24T12:33:41.761Z,22.59
2017-07-24T12:34:43.003Z,22.69
2017-07-24T12:35:44.390Z,22.67
2017-07-24T12:36:45.520Z,22.69
2017-07-24T12:37:46.768Z,22.72
2017-07-24T12:38:48.087Z,22.71
2017-07-24T12:39:49.365Z,22.68
2017-07-24T12:40:50.742Z,22.8
2017-07-24T12:41:51.963Z,22.78
2017-07-24T12:42:53.193Z,23.01
2017-07-24T12:43:54.440Z,23.09
2017-07-24T12:44:55.691Z,23.09
2017-07-24T12:45:57.036Z,23.14
2017-07-24T12:46:58.269Z,23.14
2017-07-24T12:47:59.524Z,23.22
2017-07-24T12:49:00.779Z,23.19
2017-07-24T12:50:02.066Z,23.14
2017-07-24T12:51:03.323Z,23.29
2017-07-24T12:52:04.604Z,23.26
2017-07-24T12:53:05.854Z,23.29
2017-07-24T12:54:07.094Z,23.38
2017-07-24T12:55:08.342Z,23.2
2017-07-24T12:56:09.588Z,23.07
2017-07-24T12:57:10.818Z,22.8
2017-07-24T12:58:12.038Z,22.9
2017-07-24T12:59:13.299Z,22.72
2017-07-24T13:00:14.550Z,22.6
2017-07-24T13:01:15.781Z,22.54
2017-07-24T13:02:17.024Z,22.57
2017-07-24T13:03:18.260Z,22.62
2017-07-24T13:04:19.560Z,22.6
2017-07-24T13:05:20.813Z,22.59
2017-07-24T13:06:22.052Z,22.64
2017-07-24T13:07:23.291Z,22.62
2017-07-24T13:08:24.534Z,22.72
2017-07-24T13:09:25.796Z,22.57
2017-07-24T13:10:27.019Z,22.5